Time;durP1;ratioP1;P1;durP2;ratioP2;P2;SDS_P1;SDS_P2;PMS_P1;PMS_P2;Temp;Humidity;BMP_temperature;BMP_pressure;BME280_temperature;BME280_humidity;BME280_pressure;Samples;Min_cycle;Max_cycle;Signal;HPM_P1;HPM_P2
2021/03/05 00:00:21;;;;;;;3.20;1.23;;;15.60;59.50;;;;;;4212183;28;20051;-42
2021/03/05 00:02:43;;;;;;;0.08;0.08;;;15.60;59.40;;;;;;4214809;28;20109;-42
2021/03/05 00:05:22;;;;;;;0.00;0.00;;;15.60;59.30;;;;;;4214563;28;20184;-42
2021/03/05 00:07:44;;;;;;;0.82;0.82;;;15.60;59.30;;;;;;4214762;28;20075;-43
2021/03/05 00:10:07;;;;;;;0.15;0.15;;;15.60;59.20;;;;;;4214736;28;20632;-45
2021/03/05 00:12:28;;;;;;;0.15;0.15;;;15.60;59.10;;;;;;4198006;28;20052;-47
2021/03/05 00:14:49;;;;;;;0.20;0.20;;;15.60;59.10;;;;;;4197799;28;20052;-42
2021/03/05 00:17:11;;;;;;;0.00;0.00;;;15.60;59.20;;;;;;4197991;28;20084;-42
2021/03/05 00:19:32;;;;;;;0.00;0.00;;;15.60;59.30;;;;;;4197969;28;20062;-42
2021/03/05 00:21:53;;;;;;;0.00;0.00;;;15.50;59.50;;;;;;4210549;28;20502;-42
2021/03/05 00:24:14;;;;;;;0.00;0.00;;;15.40;59.60;;;;;;4214586;28;20052;-43
2021/03/05 00:26:36;;;;;;;0.13;0.13;;;15.30;59.80;;;;;;4214302;28;20063;-43
2021/03/05 00:29:00;;;;;;;0.00;0.00;;;15.30;60.10;;;;;;4214488;28;20052;-45
2021/03/05 00:31:21;;;;;;;0.10;0.10;;;15.20;60.40;;;;;;4214014;28;20571;-45
2021/03/05 00:33:42;;;;;;;0.10;0.10;;;15.20;60.30;;;;;;4214435;28;20075;-44
2021/03/05 00:36:04;;;;;;;1.08;0.45;;;15.50;59.80;;;;;;4214415;28;20052;-42
2021/03/05 00:38:25;;;;;;;0.05;0.05;;;15.80;59.00;;;;;;4214432;28;20044;-43
2021/03/05 00:40:47;;;;;;;0.00;0.00;;;16.00;58.50;;;;;;4213820;28;20135;-47
2021/03/05 00:43:08;;;;;;;0.15;0.15;;;16.00;58.20;;;;;;4213929;28;20059;-44
2021/03/05 00:45:30;;;;;;;0.43;0.43;;;16.10;58.10;;;;;;4214132;28;20052;-43
2021/03/05 00:47:51;;;;;;;1.80;0.63;;;16.10;58.10;;;;;;4214286;28;20146;-43
2021/03/05 00:50:16;;;;;;;1.25;1.17;;;16.00;58.10;;;;;;4212935;28;20055;-45
2021/03/05 00:52:37;;;;;;;0.17;0.17;;;16.00;58.20;;;;;;4202049;28;20055;-45
2021/03/05 00:54:59;;;;;;;0.40;0.40;;;15.90;58.40;;;;;;4214080;28;20415;-43
2021/03/05 00:57:22;;;;;;;0.10;0.10;;;15.90;58.50;;;;;;4196354;28;20642;-43
2021/03/05 00:59:43;;;;;;;0.00;0.00;;;15.80;58.60;;;;;;4198157;28;20056;-43
2021/03/05 01:02:04;;;;;;;0.10;0.10;;;15.80;58.70;;;;;;4213575;28;20056;-42
2021/03/05 01:04:25;;;;;;;;;;;15.70;58.90;;;;;;4214558;28;20121;-43
2021/03/05 01:06:51;;;;;;;0.55;0.55;;;15.70;58.90;;;;;;4212894;28;19931;-43
2021/03/05 01:09:14;;;;;;;0.25;0.25;;;15.70;58.90;;;;;;4212759;28;20442;-43
2021/03/05 01:11:37;;;;;;;0.20;0.20;;;15.70;58.80;;;;;;4213541;28;20121;-42
2021/03/05 01:13:58;;;;;;;0.30;0.30;;;15.70;58.80;;;;;;4213501;28;20413;-43
2021/03/05 01:16:19;;;;;;;0.00;0.00;;;15.70;58.90;;;;;;4213815;28;20383;-43
2021/03/05 01:18:40;;;;;;;0.00;0.00;;;15.60;59.00;;;;;;4213883;28;20073;-42
2021/03/05 01:21:02;;;;;;;;;;;15.60;59.10;;;;;;4213674;28;20056;-42
2021/03/05 01:23:23;;;;;;;0.00;0.00;;;15.70;58.90;;;;;;4213536;28;20424;-42
2021/03/05 01:25:44;;;;;;;2.28;1.63;;;15.90;58.50;;;;;;4213430;28;20063;-43
2021/03/05 01:28:06;;;;;;;0.20;0.10;;;16.00;58.00;;;;;;4213576;28;20052;-42
2021/03/05 01:30:28;;;;;;;0.00;0.00;;;16.10;57.80;;;;;;4213309;28;20093;-42
2021/03/05 01:32:50;;;;;;;0.00;0.00;;;16.10;57.80;;;;;;4213564;28;20095;-42
2021/03/05 01:35:14;;;;;;;0.35;0.35;;;16.10;57.80;;;;;;4213562;28;20050;-42
2021/03/05 01:37:35;;;;;;;0.00;0.00;;;16.00;57.90;;;;;;4213533;28;20052;-42
2021/03/05 01:39:56;;;;;;;0.00;0.00;;;16.00;58.10;;;;;;4213175;28;20495;-42
2021/03/05 01:42:17;;;;;;;0.00;0.00;;;16.00;58.00;;;;;;4196592;28;20048;-42
2021/03/05 01:44:38;;;;;;;0.10;0.10;;;16.10;57.80;;;;;;4196397;28;20178;-45
2021/03/05 01:46:59;;;;;;;0.05;0.05;;;16.10;57.70;;;;;;4196380;28;20189;-45
2021/03/05 01:49:21;;;;;;;0.05;0.05;;;16.10;57.80;;;;;;4196332;28;20052;-45
2021/03/05 01:51:42;;;;;;;0.00;0.00;;;16.10;57.80;;;;;;4196454;28;20080;-43
2021/03/05 01:54:04;;;;;;;1.20;1.17;;;16.10;57.70;;;;;;4196564;28;20058;-45
2021/03/05 01:56:38;;;;;;;0.10;0.10;;;16.10;57.70;;;;;;4208814;28;20066;-46
2021/03/05 01:58:59;;;;;;;0.68;0.68;;;16.10;57.80;;;;;;4212960;28;20072;-45
2021/03/05 02:01:20;;;;;;;;;;;16.00;57.90;;;;;;4213150;28;20120;-46
2021/03/05 02:03:42;;;;;;;0.13;0.13;;;15.90;58.10;;;;;;4212369;28;19931;-46
2021/03/05 02:06:03;;;;;;;;;;;15.80;58.30;;;;;;4213525;28;20055;-49
2021/03/05 02:08:24;;;;;;;;;;;15.80;58.40;;;;;;4213607;28;19931;-43
2021/03/05 02:10:45;;;;;;;1.25;0.43;;;15.80;58.50;;;;;;4211394;28;19978;-43
2021/03/05 02:13:08;;;;;;;0.95;0.75;;;15.80;58.40;;;;;;4212886;28;20083;-42
2021/03/05 02:15:31;;;;;;;0.32;0.32;;;15.80;58.10;;;;;;4211871;28;20044;-43
2021/03/05 02:18:03;;;;;;;0.00;0.00;;;15.80;58.10;;;;;;4212841;28;20571;-43
2021/03/05 02:20:30;;;;;;;0.05;0.05;;;15.80;58.10;;;;;;4212522;28;20147;-43
2021/03/05 02:23:12;;;;;;;0.00;0.00;;;15.70;58.10;;;;;;4212397;28;20414;-44
2021/03/05 02:26:04;;;;;;;0.00;0.00;;;15.70;58.20;;;;;;4212814;28;20417;-46
2021/03/05 02:28:55;;;;;;;0.20;0.20;;;15.70;58.20;;;;;;4212651;28;20060;-50
2021/03/05 02:31:22;;;;;;;;;;;15.70;58.20;;;;;;4172483;28;20464;-45
2021/03/05 02:33:49;;;;;;;0.00;0.00;;;15.60;58.30;;;;;;4196010;28;20019;-44
2021/03/05 02:36:14;;;;;;;0.00;0.00;;;15.60;58.30;;;;;;4210257;28;20048;-42
2021/03/05 02:38:36;;;;;;;0.00;0.00;;;15.50;58.30;;;;;;4212398;28;20093;-42
2021/03/05 02:40:59;;;;;;;0.10;0.10;;;15.50;58.40;;;;;;4212264;28;20055;-43
2021/03/05 02:43:22;;;;;;;0.00;0.00;;;15.40;58.20;;;;;;4212527;28;20048;-42
2021/03/05 02:45:46;;;;;;;0.00;0.00;;;15.40;58.50;;;;;;4212859;28;20498;-42
2021/03/05 02:48:12;;;;;;;0.00;0.00;;;15.40;58.50;;;;;;4212065;28;20051;-43
2021/03/05 02:50:36;;;;;;;0.00;0.00;;;15.40;58.40;;;;;;4212039;28;20051;-43
2021/03/05 02:53:04;;;;;;;0.05;0.05;;;15.30;58.50;;;;;;4212021;28;20421;-43
2021/03/05 02:55:26;;;;;;;0.10;0.10;;;15.20;58.60;;;;;;4212477;28;20056;-43
2021/03/05 02:57:51;;;;;;;0.00;0.00;;;15.20;58.40;;;;;;4212095;28;20075;-43
2021/03/05 03:00:14;;;;;;;0.00;0.00;;;15.20;58.50;;;;;;4212104;28;20063;-43
2021/03/05 03:02:37;;;;;;;0.00;0.00;;;15.30;58.40;;;;;;4212182;28;20532;-43
2021/03/05 03:05:00;;;;;;;0.00;0.00;;;15.50;58.00;;;;;;4212078;28;20047;-43
2021/03/05 03:07:38;;;;;;;0.00;0.00;;;15.60;57.70;;;;;;4212030;28;20462;-42
2021/03/05 03:10:00;;;;;;;0.00;0.00;;;15.60;57.50;;;;;;4212319;28;20657;-43
2021/03/05 03:12:23;;;;;;;0.00;0.00;;;15.50;57.40;;;;;;4212203;28;20052;-42
2021/03/05 03:14:47;;;;;;;0.00;0.00;;;15.50;57.40;;;;;;4212622;28;20501;-43
2021/03/05 03:17:10;;;;;;;0.00;0.00;;;15.50;57.40;;;;;;4215550;28;20803;-43
2021/03/05 03:19:31;;;;;;;0.00;0.00;;;15.60;57.20;;;;;;4215485;28;20058;-42
2021/03/05 03:21:53;;;;;;;0.00;0.00;;;15.80;56.90;;;;;;4215183;28;20494;-45
2021/03/05 03:24:14;;;;;;;0.00;0.00;;;15.90;56.60;;;;;;4215192;28;20497;-43
2021/03/05 03:26:38;;;;;;;0.00;0.00;;;15.90;56.20;;;;;;4215583;28;20044;-43
2021/03/05 03:29:01;;;;;;;0.00;0.00;;;16.00;56.10;;;;;;4215121;28;20784;-43
2021/03/05 03:31:22;;;;;;;0.10;0.10;;;16.00;56.10;;;;;;4214964;28;20682;-43
2021/03/05 03:33:44;;;;;;;0.00;0.00;;;16.00;56.10;;;;;;4215249;28;20052;-42
2021/03/05 03:36:08;;;;;;;0.00;0.00;;;16.00;56.10;;;;;;4215025;28;20463;-42
2021/03/05 03:38:32;;;;;;;0.00;0.00;;;16.00;56.10;;;;;;4215306;28;20052;-43
2021/03/05 03:40:54;;;;;;;0.10;0.10;;;16.00;56.00;;;;;;4215257;28;20056;-43
2021/03/05 03:43:18;;;;;;;0.00;0.00;;;16.00;55.90;;;;;;4198501;28;20159;-43
2021/03/05 03:45:41;;;;;;;0.00;0.00;;;16.00;56.00;;;;;;4198433;28;20052;-42
2021/03/05 03:48:04;;;;;;;0.00;0.00;;;15.90;56.20;;;;;;4200412;28;20052;-43
2021/03/05 03:50:30;;;;;;;0.00;0.00;;;15.90;56.40;;;;;;4214842;28;20126;-43
2021/03/05 03:52:56;;;;;;;0.00;0.00;;;16.00;56.20;;;;;;4214982;28;20055;-49
2021/03/05 03:55:18;;;;;;;0.00;0.00;;;16.10;55.70;;;;;;4215109;28;20563;-41
2021/03/05 03:57:41;;;;;;;0.00;0.00;;;16.20;55.40;;;;;;4215080;28;20452;-42
2021/03/05 04:00:04;;;;;;;0.00;0.00;;;16.20;55.40;;;;;;4214637;28;20440;-42
2021/03/05 04:02:33;;;;;;;0.20;0.20;;;16.20;55.40;;;;;;4214573;28;20530;-42
2021/03/05 04:04:57;;;;;;;0.08;0.08;;;16.20;55.40;;;;;;4214775;28;20071;-42
2021/03/05 04:07:20;;;;;;;0.00;0.00;;;16.20;55.40;;;;;;4214991;28;20054;-42
2021/03/05 04:09:42;;;;;;;0.00;0.00;;;16.20;55.50;;;;;;4200399;28;20052;-41
2021/03/05 04:12:04;;;;;;;;;;;16.10;55.50;;;;;;4213996;28;20043;-44
2021/03/05 04:14:25;;;;;;;;;;;16.10;55.60;;;;;;4215338;28;19923;-46
2021/03/05 04:16:46;;;;;;;;;;;16.00;55.90;;;;;;4215203;28;19935;-41
2021/03/05 04:19:07;;;;;;;0.00;0.00;;;15.90;56.20;;;;;;4214588;28;20011;-44
2021/03/05 04:21:32;;;;;;;2.08;0.85;;;15.80;56.40;;;;;;4197926;28;20098;-41
2021/03/05 04:23:53;;;;;;;0.43;0.43;;;15.70;56.60;;;;;;4197880;28;20134;-45
2021/03/05 04:26:14;;;;;;;2.53;1.00;;;15.70;57.50;;;;;;4197062;28;20186;-44
2021/03/05 04:28:36;;;;;;;0.00;0.00;;;15.60;56.80;;;;;;4197833;28;20056;-45
2021/03/05 04:30:57;;;;;;;0.00;0.00;;;15.50;56.90;;;;;;4212577;28;20056;-41
2021/03/05 04:33:18;;;;;;;0.00;0.00;;;15.60;57.10;;;;;;4214279;28;20117;-41
2021/03/05 04:35:39;;;;;;;0.00;0.00;;;15.60;57.00;;;;;;4214148;28;20061;-41
2021/03/05 04:37:59;;;;;;;0.00;0.00;;;15.60;56.80;;;;;;4214369;28;20048;-41
2021/03/05 04:40:21;;;;;;;0.00;0.00;;;15.70;56.80;;;;;;4214059;28;20137;-41
2021/03/05 04:42:41;;;;;;;0.10;0.10;;;15.60;57.50;;;;;;4214107;28;20052;-41
2021/03/05 04:45:04;;;;;;;0.00;0.00;;;15.60;56.90;;;;;;4214419;28;20392;-41
2021/03/05 04:47:25;;;;;;;0.00;0.00;;;15.70;56.90;;;;;;4214146;28;20058;-41
2021/03/05 04:49:46;;;;;;;0.00;0.00;;;15.80;56.50;;;;;;4214068;28;20056;-41
2021/03/05 04:52:07;;;;;;;0.00;0.00;;;15.90;56.20;;;;;;4214297;28;20086;-41
2021/03/05 04:54:28;;;;;;;0.00;0.00;;;15.80;56.20;;;;;;4214086;28;20060;-41
2021/03/05 04:56:49;;;;;;;0.00;0.00;;;15.80;56.90;;;;;;4214245;28;20056;-41
2021/03/05 04:59:09;;;;;;;0.00;0.00;;;15.80;56.10;;;;;;4213783;28;20055;-41
2021/03/05 05:01:31;;;;;;;0.00;0.00;;;15.90;56.10;;;;;;4213480;28;20055;-42
2021/03/05 05:03:53;;;;;;;0.00;0.00;;;15.80;56.00;;;;;;4213799;28;20513;-42
2021/03/05 05:06:14;;;;;;;0.00;0.00;;;15.80;56.20;;;;;;4197326;28;20063;-43
2021/03/05 05:08:35;;;;;;;;;;;15.80;56.30;;;;;;4197766;28;20290;-42
2021/03/05 05:10:56;;;;;;;;;;;15.70;56.40;;;;;;4197627;28;19924;-42
2021/03/05 05:13:17;;;;;;;;;;;15.70;56.30;;;;;;4197465;28;20374;-43
2021/03/05 05:15:38;;;;;;;;;;;15.70;56.40;;;;;;4210815;28;19927;-43
2021/03/05 05:18:01;;;;;;;;;;;15.60;56.60;;;;;;4213925;28;19953;-44
2021/03/05 05:20:22;;;;;;;;;;;15.60;56.70;;;;;;4213928;28;19928;-43
2021/03/05 05:22:43;;;;;;;;;;;15.60;56.80;;;;;;4214219;28;19924;-43
2021/03/05 05:25:05;;;;;;;;;;;15.50;56.80;;;;;;4214054;28;20691;-42
2021/03/05 05:27:25;;;;;;;;;;;15.50;56.90;;;;;;4213848;28;19924;-42
2021/03/05 05:29:47;;;;;;;;;;;15.40;57.10;;;;;;4214187;28;19931;-42
2021/03/05 05:32:07;;;;;;;;;;;15.40;57.20;;;;;;4213627;28;19920;-42
2021/03/05 05:34:29;;;;;;;;;;;15.40;57.10;;;;;;4213953;28;19924;-42
2021/03/05 05:36:50;;;;;;;;;;;15.60;56.60;;;;;;4213709;28;19931;-42
2021/03/05 05:39:12;;;;;;;;;;;15.80;56.20;;;;;;4212749;28;19924;-42
2021/03/05 05:41:33;;;;;;;;;;;15.90;55.80;;;;;;4213858;28;19977;-42
2021/03/05 05:43:54;;;;;;;;;;;16.10;55.40;;;;;;4213377;28;20285;-42
2021/03/05 05:46:16;;;;;;;;;;;16.10;55.10;;;;;;4213804;28;19976;-42
2021/03/05 05:48:38;;;;;;;;;;;16.10;55.00;;;;;;4213872;28;19927;-42
2021/03/05 05:51:00;;;;;;;;;;;16.10;55.10;;;;;;4203335;28;19927;-42
2021/03/05 05:53:22;;;;;;;;;;;16.00;55.30;;;;;;4213472;28;20374;-44
2021/03/05 05:55:42;;;;;;;;;;;15.90;55.60;;;;;;4196907;28;19978;-44
2021/03/05 05:58:03;;;;;;;;;;;15.90;55.70;;;;;;4195710;28;19931;-42
2021/03/05 06:00:25;;;;;;;;;;;16.00;55.50;;;;;;4196604;28;20031;-46
2021/03/05 06:02:47;;;;;;;;;;;16.10;55.10;;;;;;4196635;28;19974;-42
2021/03/05 06:05:08;;;;;;;;;;;16.20;54.70;;;;;;4208731;28;20393;-42
2021/03/05 06:07:33;;;;;;;;;;;16.40;54.40;;;;;;4213554;28;19946;-45
2021/03/05 06:09:59;;;;;;;;;;;16.50;54.20;;;;;;4213300;28;20288;-48
2021/03/05 06:12:20;;;;;;;;;;;16.50;54.00;;;;;;4196644;28;20413;-44
2021/03/05 06:14:41;;;;;;;;;;;16.50;53.90;;;;;;4210889;28;19924;-47
2021/03/05 06:17:04;;;;;;;;;;;16.50;54.00;;;;;;4213320;28;20412;-50
2021/03/05 06:19:26;;;;;;;;;;;16.40;54.30;;;;;;4213095;28;19931;-47
2021/03/05 06:21:47;;;;;;;;;;;16.30;54.50;;;;;;4213090;28;20289;-46
2021/03/05 06:24:09;;;;;;;;;;;16.20;54.80;;;;;;4211820;28;19974;-42
2021/03/05 06:26:46;;;;;;;;;;;16.00;55.10;;;;;;4213066;28;19955;-41
2021/03/05 06:29:07;;;;;;;;;;;15.90;55.60;;;;;;4213311;28;19947;-41
2021/03/05 06:31:28;;;;;;;;;;;15.90;56.20;;;;;;4212578;28;19959;-42
2021/03/05 06:33:56;;;;;;;;;;;15.80;56.80;;;;;;4212842;28;19920;-43
2021/03/05 06:36:18;;;;;;;;;;;15.80;57.10;;;;;;4211926;28;19946;-43
2021/03/05 06:38:40;;;;;;;;;;;15.90;57.10;;;;;;4213089;28;19924;-42
2021/03/05 06:41:14;;;;;;;;;;;16.00;56.60;;;;;;4212255;28;19927;-46
2021/03/05 06:43:42;;;;;;;;;;;16.00;56.30;;;;;;4212314;28;20378;-48
2021/03/05 06:46:03;;;;;;;;;;;16.00;56.30;;;;;;4212719;28;19927;-42
2021/03/05 06:48:23;;;;;;;;;;;16.00;56.20;;;;;;4212795;28;20453;-42
2021/03/05 06:50:44;;;;;;;;;;;16.10;55.90;;;;;;4211647;28;19923;-42
2021/03/05 06:53:19;;;;;;;;;;;16.20;55.60;;;;;;4212490;28;19981;-42
2021/03/05 06:55:39;;;;;;;;;;;16.20;56.20;;;;;;4196259;28;19928;-42
2021/03/05 06:58:07;;;;;;;;;;;16.10;55.50;;;;;;4196121;28;19930;-45
2021/03/05 07:00:29;;;;;;;;;;;16.10;55.70;;;;;;4205516;28;20022;-45
2021/03/05 07:02:51;;;;;;;;;;;16.10;56.00;;;;;;4211646;28;19924;-42
2021/03/05 07:05:12;;;;;;;;;;;16.00;56.00;;;;;;4211578;28;19930;-43
2021/03/05 07:07:41;;;;;;;;;;;16.00;56.00;;;;;;4212488;28;19924;-43
2021/03/05 07:10:02;;;;;;;;;;;15.90;56.10;;;;;;4212854;28;20457;-43
2021/03/05 07:12:28;;;;;;;;;;;15.90;56.30;;;;;;4212380;28;19931;-41
2021/03/05 07:14:51;;;;;;;;;;;15.80;56.50;;;;;;4196524;28;19924;-43
2021/03/05 07:17:12;;;;;;;;;;;15.90;56.40;;;;;;4212596;28;20026;-43
2021/03/05 07:19:34;;;;;;;;;;;15.90;56.10;;;;;;4212243;28;20404;-42
2021/03/05 07:21:56;;;;;;;;;;;16.10;55.70;;;;;;4201205;28;19930;-42
2021/03/05 07:24:17;;;;;;;;;;;16.20;55.50;;;;;;4211664;28;19939;-42
2021/03/05 07:29:22;;;;;;;;;;;16.10;55.50;;;;;;4212352;28;19924;-42
2021/03/05 07:31:45;;;;;;;;;;;16.00;55.50;;;;;;4212596;28;20657;-42
2021/03/05 07:34:07;;;;;;;;;;;16.00;55.70;;;;;;4212506;28;19935;-42
2021/03/05 07:36:30;;;;;;;;;;;16.00;55.60;;;;;;4212781;28;20112;-43
2021/03/05 07:38:51;;;;;;;;;;;16.00;55.50;;;;;;4212317;28;19931;-45
2021/03/05 07:41:13;;;;;;;;;;;16.00;55.60;;;;;;4212456;28;19920;-42
2021/03/05 07:43:35;;;;;;;;;;;15.90;55.80;;;;;;4211439;28;19924;-43
2021/03/05 07:45:58;;;;;;;;;;;15.90;56.00;;;;;;4212547;28;19924;-46
2021/03/05 07:48:19;;;;;;;;;;;15.80;55.90;;;;;;4212585;28;19924;-44
2021/03/05 07:50:41;;;;;;;;;;;15.90;55.90;;;;;;4197186;28;19951;-44
2021/03/05 07:53:02;;;;;;;;;;;15.90;55.90;;;;;;4212298;28;19931;-42
2021/03/05 07:55:34;;;;;;;;;;;15.90;56.00;;;;;;4212449;28;19924;-42
2021/03/05 07:57:55;;;;;;;;;;;15.90;56.10;;;;;;4212415;28;20722;-42
2021/03/05 08:00:17;;;;;;;;;;;15.90;56.20;;;;;;4212241;28;19928;-42
2021/03/05 08:02:52;;;;;;;;;;;15.90;56.40;;;;;;4214436;28;19965;-42
2021/03/05 08:05:30;;;;;;;;;;;15.90;56.60;;;;;;4215617;28;20487;-41
2021/03/05 08:08:06;;;;;;;;;;;15.80;56.90;;;;;;4215531;28;19927;-42
2021/03/05 08:10:35;;;;;;;;;;;15.90;57.00;;;;;;4198809;28;19927;-42
2021/03/05 08:12:56;;;;;;;;;;;15.90;56.90;;;;;;4198896;28;19978;-44
2021/03/05 08:15:23;;;;;;;;;;;15.90;56.90;;;;;;4198643;28;19928;-43
2021/03/05 08:17:45;;;;;;;;;;;15.90;56.90;;;;;;4198574;28;19924;-42
2021/03/05 08:20:08;;;;;;;;;;;15.90;57.00;;;;;;4198537;28;20256;-43
2021/03/05 08:22:31;;;;;;;;;;;15.90;56.90;;;;;;4198571;28;20394;-42
2021/03/05 08:24:52;;;;;;;;;;;15.90;56.90;;;;;;4198423;28;20272;-43
2021/03/05 08:27:14;;;;;;;;;;;15.90;56.90;;;;;;4198334;28;19931;-46
2021/03/05 08:29:48;;;;;;;;;;;15.90;57.00;;;;;;4206080;28;20762;-42
2021/03/05 08:32:23;;;;;;;;;;;15.90;57.00;;;;;;4215118;28;20289;-42
2021/03/05 08:34:46;;;;;;;;;;;15.90;56.90;;;;;;4215099;28;19924;-43
2021/03/05 08:37:25;;;;;;;;;;;15.90;56.90;;;;;;4214983;28;19928;-42
2021/03/05 08:39:47;;;;;;;;;;;15.90;57.00;;;;;;4215024;28;19959;-42
2021/03/05 08:42:25;;;;;;;;;;;15.90;56.90;;;;;;4214971;28;19920;-41
2021/03/05 08:45:01;;;;;;;;;;;15.90;56.80;;;;;;4212773;28;19935;-42
2021/03/05 08:47:24;;;;;;;;;;;15.80;56.80;;;;;;4214906;28;19941;-43
2021/03/05 08:49:45;;;;;;;;;;;15.80;56.90;;;;;;4214854;28;20366;-43
2021/03/05 08:52:06;;;;;;;;;;;15.70;57.30;;;;;;4214799;28;19924;-44
2021/03/05 08:54:27;;;;;;;;;;;15.70;57.00;;;;;;4214753;28;19989;-43
2021/03/05 08:56:53;;;;;;;;;;;15.90;56.50;;;;;;4213453;28;19981;-43
2021/03/05 08:59:14;;;;;;;;;;;16.10;55.80;;;;;;4214283;28;19920;-44
2021/03/05 09:01:35;;;;;;;;;;;16.30;55.20;;;;;;4214109;28;19924;-43
2021/03/05 09:04:15;;;;;;;;;;;16.40;54.60;;;;;;4214489;28;19932;-43
2021/03/05 09:06:36;;;;;;;;;;;16.40;54.50;;;;;;4213288;28;19924;-43
2021/03/05 09:09:07;;;;;;;;;;;16.30;54.50;;;;;;4214397;28;20018;-42
2021/03/05 09:11:28;;;;;;;;;;;16.30;54.50;;;;;;4214240;28;19931;-42
2021/03/05 09:13:49;;;;;;;;;;;16.40;54.30;;;;;;4214042;28;20373;-42
2021/03/05 09:16:10;;;;;;;;;;;16.40;54.40;;;;;;4214262;28;19950;-43
2021/03/05 09:18:32;;;;;;;;;;;16.50;54.20;;;;;;4212859;28;20007;-43
2021/03/05 09:20:57;;;;;;;;;;;16.70;54.00;;;;;;4202335;28;19924;-42
2021/03/05 09:23:19;;;;;;;;;;;16.80;53.60;;;;;;4213784;28;19924;-43
2021/03/05 09:25:46;;;;;;;;;;;16.90;53.10;;;;;;4214085;28;20339;-43
2021/03/05 09:28:07;;;;;;;;;;;16.90;53.10;;;;;;4214171;28;20578;-46
2021/03/05 09:30:29;;;;;;;;;;;17.00;53.10;;;;;;4214119;28;19963;-47
2021/03/05 09:32:50;;;;;;;;;;;16.90;53.10;;;;;;4214057;28;20366;-43
2021/03/05 09:35:11;;;;;;;;;;;16.80;53.50;;;;;;4213959;28;20032;-43
2021/03/05 09:37:32;;;;;;;;;;;16.70;53.80;;;;;;4213537;28;19920;-43
2021/03/05 09:39:54;;;;;;;;;;;16.70;54.50;;;;;;4213956;28;19930;-43
2021/03/05 09:42:17;;;;;;;;;;;16.70;55.00;;;;;;4213742;28;20382;-42
2021/03/05 09:44:40;;;;;;;;;;;16.70;55.60;;;;;;4213858;28;20005;-43
2021/03/05 09:47:02;;;;;;;;;;;16.60;56.50;;;;;;4212336;28;20001;-42
2021/03/05 09:49:24;;;;;;;;;;;16.60;57.20;;;;;;4213893;28;19963;-43
2021/03/05 09:51:45;;;;;;;;;;;16.70;56.80;;;;;;4213758;28;20460;-43
2021/03/05 09:54:06;;;;;;;;;;;16.80;56.30;;;;;;4213686;28;19927;-45
2021/03/05 09:56:28;;;;;;;;;;;16.90;55.60;;;;;;4213437;28;19967;-43
2021/03/05 09:58:56;;;;;;;;;;;16.80;55.30;;;;;;4212511;28;19935;-43
2021/03/05 10:01:17;;;;;;;;;;;16.90;55.00;;;;;;4213017;28;19935;-42
2021/03/05 10:03:39;;;;;;;;;;;16.90;54.30;;;;;;4202576;28;20442;-43
2021/03/05 10:06:00;;;;;;;;;;;17.00;54.00;;;;;;4213503;28;20031;-44
2021/03/05 10:08:21;;;;;;;;;;;16.90;53.70;;;;;;4213419;28;19924;-44
2021/03/05 10:10:58;;;;;;;;;;;16.90;53.60;;;;;;4213195;28;19920;-45
2021/03/05 10:13:19;;;;;;;;;;;16.70;53.50;;;;;;4212326;28;20373;-44
2021/03/05 10:15:47;;;;;;;;;;;16.60;53.60;;;;;;4213309;28;20221;-44
2021/03/05 10:18:10;;;;;;;;;;;16.60;53.60;;;;;;4213199;28;20328;-43
2021/03/05 10:20:32;;;;;;;;;;;16.70;53.40;;;;;;4213294;28;19951;-43
2021/03/05 10:22:53;;;;;;;;;;;16.80;53.00;;;;;;4213153;28;19927;-44
2021/03/05 10:25:17;;;;;;;;;;;16.80;52.90;;;;;;4212692;28;20447;-44
2021/03/05 10:27:40;;;;;;;;;;;16.80;52.80;;;;;;4213185;28;20018;-43
2021/03/05 10:30:04;;;;;;;;;;;16.70;52.90;;;;;;4213238;28;19924;-43
2021/03/05 10:32:26;;;;;;;;;;;16.60;52.90;;;;;;4211982;28;19924;-43
2021/03/05 10:34:48;;;;;;;;;;;16.50;53.20;;;;;;4213016;28;19928;-44
2021/03/05 10:37:10;;;;;;;;;;;16.40;53.50;;;;;;4212840;28;19934;-43
2021/03/05 10:39:32;;;;;;;;;;;16.40;53.40;;;;;;4212817;28;20382;-44
2021/03/05 10:41:58;;;;;;;;;;;16.60;53.10;;;;;;4212901;28;19920;-43
2021/03/05 10:44:18;;;;;;;;;;;16.70;52.70;;;;;;4213021;28;19930;-46
2021/03/05 10:46:39;;;;;;;;;;;16.70;52.50;;;;;;4213006;28;19924;-45
2021/03/05 10:49:00;;;;;;;;;;;16.70;52.50;;;;;;4213076;28;20014;-43
2021/03/05 10:51:21;;;;;;;;;;;16.70;52.50;;;;;;4212914;28;20458;-44
2021/03/05 10:53:45;;;;;;;;;;;16.70;52.70;;;;;;4212907;28;19931;-44
2021/03/05 10:56:06;;;;;;;;;;;16.70;52.70;;;;;;4212804;28;19924;-43
2021/03/05 10:58:27;;;;;;;;;;;16.60;52.90;;;;;;4196113;28;20318;-43
2021/03/05 11:00:48;;;;;;;;;;;16.50;53.00;;;;;;4196038;28;20009;-44
2021/03/05 11:03:09;;;;;;;;;;;16.30;52.90;;;;;;4195910;28;20001;-44
2021/03/05 11:05:33;;;;;;;;;;;16.20;53.10;;;;;;4196195;28;19920;-45
2021/03/05 11:07:54;;;;;;;;;;;16.10;53.40;;;;;;4196091;28;20290;-45
2021/03/05 11:10:16;;;;;;;;;;;15.90;53.60;;;;;;4196128;28;20341;-48
2021/03/05 11:12:36;;;;;;;;;;;16.00;54.10;;;;;;4196154;28;20371;-43
2021/03/05 11:14:57;;;;;;;;;;;16.20;53.80;;;;;;4196042;28;20648;-45
2021/03/05 11:17:21;;;;;;;;;;;16.50;53.30;;;;;;4207405;28;19928;-47
2021/03/05 11:19:42;;;;;;;;;;;16.70;52.80;;;;;;4212375;28;20461;-47
2021/03/05 11:22:03;;;;;;;;;;;16.90;52.20;;;;;;4212712;28;19920;-45
2021/03/05 11:24:24;;;;;;;;;;;16.90;51.60;;;;;;4212286;28;19977;-44
2021/03/05 11:26:46;;;;;;;;;;;16.90;51.60;;;;;;4212302;28;20030;-48
2021/03/05 11:29:07;;;;;;;;;;;16.80;51.80;;;;;;4212611;28;19928;-44
2021/03/05 11:31:31;;;;;;;;;;;16.70;52.50;;;;;;4212023;28;19924;-45
2021/03/05 11:33:52;;;;;;;;;;;16.70;54.00;;;;;;4212623;28;20019;-45
2021/03/05 11:36:13;;;;;;;;;;;16.80;54.10;;;;;;4213623;28;19924;-41
2021/03/05 11:38:36;;;;;;;;;;;16.90;53.70;;;;;;4214871;28;19924;-45
2021/03/05 11:40:57;;;;;;;;;;;17.00;53.10;;;;;;4215737;28;19924;-42
2021/03/05 11:43:19;;;;;;;;;;;17.10;52.70;;;;;;4215629;28;19924;-41
2021/03/05 11:45:43;;;;;;;;;;;17.00;52.50;;;;;;4215719;28;19935;-43
2021/03/05 11:48:04;;;;;;;;;;;16.90;52.20;;;;;;4214553;28;19926;-42
2021/03/05 11:50:25;;;;;;;;;;;16.80;52.70;;;;;;4199039;28;19924;-41
2021/03/05 11:52:46;;;;;;;;;;;16.70;52.80;;;;;;4198935;28;19967;-45
2021/03/05 11:55:08;;;;;;;;;;;16.60;52.90;;;;;;4205226;28;19928;-41
2021/03/05 11:57:29;;;;;;;;;;;16.50;53.20;;;;;;4215492;28;20378;-41
2021/03/05 11:59:50;;;;;;;;;;;16.40;53.60;;;;;;4215409;28;20368;-41
2021/03/05 12:02:11;;;;;;;;;;;16.30;53.60;;;;;;4215493;28;19931;-45
2021/03/05 12:04:34;;;;;;;;;;;16.10;53.50;;;;;;4214992;28;19923;-42
2021/03/05 12:06:54;;;;;;;;;;;15.90;53.70;;;;;;4214010;28;19977;-41
2021/03/05 12:09:17;;;;;;;;;;;15.80;53.80;;;;;;4197522;28;20479;-42
2021/03/05 12:11:37;;;;;;;;;;;15.70;54.10;;;;;;4211164;28;20401;-43
2021/03/05 12:13:58;;;;;;;;;;;15.60;54.10;;;;;;4215103;28;19997;-44
2021/03/05 12:18:58;;;;;;;;;;;15.40;54.40;;;;;;4214881;28;19947;-42
2021/03/05 12:21:20;;;;;;;;;;;15.40;54.50;;;;;;4213176;28;19923;-47
2021/03/05 12:23:42;;;;;;;;;;;15.30;54.60;;;;;;4212101;28;20333;-42
2021/03/05 12:26:02;;;;;;;;;;;15.30;54.60;;;;;;4204132;28;19927;-42
2021/03/05 12:28:23;;;;;;;;;;;15.30;54.60;;;;;;4214773;28;19950;-42
2021/03/05 12:30:44;;;;;;;;;;;15.20;54.70;;;;;;4214524;28;20014;-42
2021/03/05 12:33:05;;;;;;;;;;;15.10;54.70;;;;;;4214465;28;19931;-41
2021/03/05 12:35:26;;;;;;;;;;;15.00;55.60;;;;;;4214759;28;19923;-44
2021/03/05 12:37:47;;;;;;;;;;;15.00;55.00;;;;;;4214155;28;21069;-42
2021/03/05 12:40:08;;;;;;;;;;;15.00;55.10;;;;;;4214697;28;19971;-41
2021/03/05 12:42:30;;;;;;;;;;;14.90;55.10;;;;;;4214680;28;20396;-41
2021/03/05 12:44:54;;;;;;;;;;;14.90;55.20;;;;;;4214428;28;19930;-42
2021/03/05 12:47:18;;;;;;;;;;;14.90;55.40;;;;;;4213712;28;19920;-42
2021/03/05 12:49:40;;;;;;;;;;;14.80;55.50;;;;;;4214159;28;19954;-42
2021/03/05 12:52:01;;;;;;;;;;;14.80;55.50;;;;;;4214210;28;19927;-44
2021/03/05 12:54:22;;;;;;;;;;;14.70;55.70;;;;;;4213927;28;20281;-42
2021/03/05 12:56:42;;;;;;;;;;;14.70;56.10;;;;;;4214742;28;20011;-43
2021/03/05 12:59:03;;;;;;;;;;;14.60;56.50;;;;;;4212716;28;19924;-42
2021/03/05 13:01:24;;;;;;;;;;;14.50;56.80;;;;;;4213467;28;19959;-42
2021/03/05 13:03:44;;;;;;;;;;;14.50;57.10;;;;;;4213642;28;20381;-43
2021/03/05 13:06:06;;;;;;;;;;;14.40;57.20;;;;;;4213174;28;19970;-42
2021/03/05 13:08:29;;;;;;;;;;;14.40;57.10;;;;;;4219466;28;20288;-41
2021/03/05 13:10:50;;;;;;;;;;;14.40;57.30;;;;;;4212727;28;20571;-41
2021/03/05 13:13:11;;;;;;;;;;;14.40;57.30;;;;;;4213428;28;19935;-41
2021/03/05 13:15:34;;;;;;;;;;;14.30;57.70;;;;;;4209171;28;19955;-41
2021/03/05 13:17:55;;;;;;;;;;;14.30;58.10;;;;;;4214317;28;19927;-42
2021/03/05 13:20:16;;;;;;;;;;;14.30;58.60;;;;;;4214204;28;19924;-42
2021/03/05 13:22:38;;;;;;;;;;;14.20;59.00;;;;;;4213294;28;20376;-42